createdAt,value
2018-08-28T00:00:10.117Z,0.00
2018-08-28T00:01:10.044Z,0.00
2018-08-28T00:02:09.970Z,0.00
2018-08-28T00:03:09.898Z,0.00
2018-08-28T00:04:09.823Z,0.00
2018-08-28T00:05:09.750Z,0.00
2018-08-28T00:06:09.676Z,0.00
2018-08-28T00:07:09.603Z,0.00
2018-08-28T00:08:09.528Z,0.00
2018-08-28T00:09:09.455Z,0.00
2018-08-28T00:10:09.383Z,0.00
2018-08-28T00:11:09.308Z,0.00
2018-08-28T00:12:09.233Z,0.00
2018-08-28T00:13:09.160Z,0.00
2018-08-28T00:14:09.090Z,0.00
2018-08-28T00:15:09.015Z,0.00
2018-08-28T00:16:08.938Z,0.00
2018-08-28T00:17:08.896Z,0.00
2018-08-28T00:18:08.793Z,0.00
2018-08-28T00:19:08.721Z,0.00
2018-08-28T00:20:08.649Z,0.00
2018-08-28T00:21:08.571Z,0.00
2018-08-28T00:22:08.495Z,0.00
2018-08-28T00:23:08.423Z,0.00
2018-08-28T00:24:08.348Z,0.00
2018-08-28T00:25:08.276Z,0.00
2018-08-28T00:26:08.201Z,0.00
2018-08-28T00:27:08.128Z,0.00
2018-08-28T00:28:08.054Z,0.00
2018-08-28T00:29:07.983Z,0.00
2018-08-28T00:30:07.907Z,0.00
2018-08-28T00:31:07.832Z,0.00
2018-08-28T00:32:07.758Z,0.00
2018-08-28T00:33:07.684Z,0.00
2018-08-28T00:34:07.610Z,0.00
2018-08-28T00:35:07.538Z,0.00
2018-08-28T00:36:07.462Z,0.00
2018-08-28T00:37:07.388Z,0.00
2018-08-28T00:38:07.316Z,0.00
2018-08-28T00:39:07.242Z,0.00
2018-08-28T00:40:07.167Z,0.00
2018-08-28T00:41:07.092Z,0.00
2018-08-28T00:42:07.019Z,0.00
2018-08-28T00:43:06.946Z,0.00
2018-08-28T00:44:06.873Z,0.00
2018-08-28T00:45:06.798Z,0.00
2018-08-28T00:46:06.723Z,0.00
2018-08-28T00:47:06.651Z,0.00
2018-08-28T00:48:06.575Z,0.00
2018-08-28T00:49:06.500Z,0.00
2018-08-28T00:50:06.428Z,0.00
2018-08-28T00:51:06.353Z,0.00
2018-08-28T00:52:06.276Z,0.00
2018-08-28T00:53:06.203Z,0.00
2018-08-28T00:54:06.129Z,0.00
2018-08-28T00:55:06.057Z,0.00
2018-08-28T00:56:05.981Z,0.00
2018-08-28T00:57:05.906Z,0.00
2018-08-28T00:58:05.832Z,0.00
2018-08-28T00:59:05.757Z,0.00
2018-08-28T01:00:05.682Z,0.00
2018-08-28T01:01:05.608Z,0.00
2018-08-28T01:02:05.568Z,0.00
2018-08-28T01:03:05.459Z,0.00
2018-08-28T01:04:05.385Z,0.00
2018-08-28T01:05:05.310Z,0.00
2018-08-28T01:06:05.235Z,0.00
2018-08-28T01:07:05.160Z,0.00
2018-08-28T01:08:05.084Z,0.00
2018-08-28T01:09:05.011Z,0.00
2018-08-28T01:10:04.936Z,0.00
2018-08-28T01:11:04.862Z,0.00
2018-08-28T01:12:04.786Z,0.00
2018-08-28T01:13:04.711Z,0.00
2018-08-28T01:14:04.635Z,0.00
2018-08-28T01:15:04.561Z,0.00
2018-08-28T01:16:04.487Z,0.00
2018-08-28T01:17:04.412Z,0.00
2018-08-28T01:18:04.335Z,0.00
2018-08-28T01:19:04.262Z,0.00
2018-08-28T01:20:04.192Z,0.00
2018-08-28T01:21:04.110Z,0.00
2018-08-28T01:22:04.035Z,0.00
2018-08-28T01:23:03.964Z,0.00
2018-08-28T01:24:03.884Z,0.00
2018-08-28T01:25:03.808Z,0.00
2018-08-28T01:26:03.734Z,0.00
2018-08-28T01:27:03.658Z,0.00
2018-08-28T01:28:03.582Z,0.00
2018-08-28T01:29:03.508Z,0.00
2018-08-28T01:30:03.432Z,0.00
2018-08-28T01:31:03.357Z,0.00
2018-08-28T01:32:03.280Z,0.00
2018-08-28T01:33:03.208Z,0.00
2018-08-28T01:34:03.133Z,0.00
2018-08-28T01:35:03.056Z,0.00
2018-08-28T01:36:02.982Z,0.00
2018-08-28T01:37:02.906Z,0.00
2018-08-28T01:38:02.828Z,0.00
2018-08-28T01:39:02.754Z,0.00
2018-08-28T01:40:02.680Z,0.00
2018-08-28T01:41:02.601Z,0.00
2018-08-28T01:42:02.526Z,0.00
2018-08-28T01:43:02.451Z,0.00
2018-08-28T01:44:02.373Z,0.00
2018-08-28T01:45:02.298Z,0.00
2018-08-28T01:46:02.224Z,0.00
2018-08-28T01:47:02.147Z,0.00
2018-08-28T01:48:02.073Z,0.00
2018-08-28T01:49:01.996Z,0.00
2018-08-28T01:50:01.920Z,0.00
2018-08-28T01:51:01.845Z,0.00
2018-08-28T01:52:01.779Z,0.00
2018-08-28T01:53:01.694Z,0.00
2018-08-28T01:54:01.617Z,0.00
2018-08-28T01:55:01.543Z,0.00
2018-08-28T01:56:01.465Z,0.00
2018-08-28T01:57:01.390Z,0.00
2018-08-28T01:58:01.314Z,0.00
2018-08-28T01:59:01.239Z,0.00
2018-08-28T02:00:01.162Z,0.00
2018-08-28T02:01:01.090Z,0.00
2018-08-28T02:02:01.010Z,0.00
2018-08-28T02:03:00.936Z,0.00
2018-08-28T02:04:00.858Z,0.00
2018-08-28T02:05:00.782Z,0.00
2018-08-28T02:06:00.706Z,0.00
2018-08-28T02:07:00.631Z,0.00
2018-08-28T02:08:00.554Z,0.00
2018-08-28T02:09:00.478Z,0.00
2018-08-28T02:10:00.403Z,0.00
2018-08-28T02:11:00.328Z,0.00
2018-08-28T02:12:00.251Z,0.00
2018-08-28T02:13:00.217Z,0.00
2018-08-28T02:14:00.097Z,0.00
2018-08-28T02:15:00.023Z,0.00
2018-08-28T02:15:59.946Z,0.00
2018-08-28T02:16:59.869Z,0.00
2018-08-28T02:17:59.793Z,0.00
2018-08-28T02:18:59.718Z,0.00
2018-08-28T02:19:59.643Z,0.00
2018-08-28T02:20:59.564Z,0.00
2018-08-28T02:21:59.489Z,0.00
2018-08-28T02:22:59.413Z,0.00
2018-08-28T02:23:59.336Z,0.00
2018-08-28T02:24:59.259Z,0.00
2018-08-28T02:25:59.184Z,0.00
2018-08-28T02:26:59.106Z,0.00
2018-08-28T02:27:59.029Z,0.00
2018-08-28T02:28:58.953Z,0.00
2018-08-28T02:29:58.877Z,0.00
2018-08-28T02:30:58.801Z,0.00
2018-08-28T02:31:58.726Z,0.00
2018-08-28T02:32:58.647Z,0.00
2018-08-28T02:33:58.571Z,0.00
2018-08-28T02:34:58.495Z,0.00
2018-08-28T02:35:58.420Z,0.00
2018-08-28T02:36:58.342Z,0.00
2018-08-28T02:37:58.266Z,0.00
2018-08-28T02:38:58.190Z,0.00
2018-08-28T02:39:58.112Z,0.00
2018-08-28T02:40:58.035Z,0.00
2018-08-28T02:41:57.962Z,0.00
2018-08-28T02:42:57.883Z,0.00
2018-08-28T02:43:57.805Z,0.00
2018-08-28T02:44:57.730Z,0.00
2018-08-28T02:45:57.655Z,0.00
2018-08-28T02:46:57.577Z,0.00
2018-08-28T02:47:57.505Z,0.00
2018-08-28T02:48:57.422Z,0.00
2018-08-28T02:49:57.347Z,0.00
2018-08-28T02:50:57.270Z,0.00
2018-08-28T02:51:57.204Z,0.00
2018-08-28T02:52:57.114Z,0.00
2018-08-28T02:53:57.040Z,0.00
2018-08-28T02:54:56.962Z,0.00
2018-08-28T02:55:56.884Z,0.00
2018-08-28T02:56:56.806Z,0.00
2018-08-28T02:57:56.731Z,0.00
2018-08-28T02:58:56.660Z,0.00
2018-08-28T02:59:56.578Z,0.00
2018-08-28T03:00:56.500Z,0.00
2018-08-28T03:01:56.424Z,0.00
2018-08-28T03:02:56.423Z,0.00
2018-08-28T03:03:56.270Z,0.00
2018-08-28T03:04:56.196Z,0.00
2018-08-28T03:05:56.115Z,0.00
2018-08-28T03:06:56.042Z,0.00
2018-08-28T03:07:55.962Z,0.00
2018-08-28T03:08:55.884Z,0.00
2018-08-28T03:09:55.807Z,0.00
2018-08-28T03:10:55.732Z,0.00
2018-08-28T03:11:55.653Z,0.00
2018-08-28T03:12:55.580Z,0.00
2018-08-28T03:13:55.500Z,0.00
2018-08-28T03:14:55.422Z,0.00
2018-08-28T03:15:55.366Z,0.00
2018-08-28T03:16:55.272Z,0.00
2018-08-28T03:17:55.190Z,0.00
2018-08-28T03:18:55.114Z,0.00
2018-08-28T03:19:55.037Z,0.00
2018-08-28T03:20:54.959Z,0.00
2018-08-28T03:21:54.882Z,0.00
2018-08-28T03:22:54.807Z,0.00
2018-08-28T03:23:54.726Z,0.00
2018-08-28T03:24:54.650Z,0.00
2018-08-28T03:25:54.573Z,0.00
2018-08-28T03:26:54.498Z,0.00
2018-08-28T03:27:54.419Z,0.00
2018-08-28T03:28:54.350Z,0.00
2018-08-28T03:29:54.265Z,0.00
2018-08-28T03:30:54.187Z,0.00
2018-08-28T03:31:54.110Z,0.00
2018-08-28T03:32:54.032Z,0.00
2018-08-28T03:33:53.954Z,0.00
2018-08-28T03:34:53.879Z,0.00
2018-08-28T03:35:53.801Z,0.00
2018-08-28T03:36:53.723Z,0.00
2018-08-28T03:37:53.645Z,0.00
2018-08-28T03:38:53.568Z,0.00
2018-08-28T03:39:53.490Z,0.00
2018-08-28T03:40:53.414Z,0.00
2018-08-28T03:41:53.335Z,0.00
2018-08-28T03:42:53.262Z,0.00
2018-08-28T03:43:53.181Z,0.00
2018-08-28T03:44:53.244Z,0.00
2018-08-28T03:45:53.027Z,0.00
2018-08-28T03:46:52.949Z,0.00
2018-08-28T03:47:52.873Z,0.00
2018-08-28T03:48:52.795Z,0.00
2018-08-28T03:49:52.716Z,0.00
2018-08-28T03:50:52.640Z,0.00
2018-08-28T03:51:52.562Z,0.00
2018-08-28T03:52:52.484Z,0.00
2018-08-28T03:53:52.409Z,0.00
2018-08-28T03:54:52.331Z,0.00
2018-08-28T03:55:52.257Z,0.00
2018-08-28T03:56:52.175Z,0.00
2018-08-28T03:57:52.097Z,0.00
2018-08-28T03:58:52.021Z,0.00
2018-08-28T03:59:51.942Z,0.00
2018-08-28T04:00:51.865Z,0.00
2018-08-28T04:01:51.788Z,0.00
2018-08-28T04:02:51.710Z,0.00
2018-08-28T04:03:51.634Z,0.00
2018-08-28T04:04:51.556Z,0.00
2018-08-28T04:05:51.478Z,0.00
2018-08-28T04:06:51.400Z,0.00
2018-08-28T04:07:51.322Z,0.00
2018-08-28T04:08:51.244Z,0.00
2018-08-28T04:09:51.168Z,0.00
2018-08-28T04:10:51.090Z,0.00
2018-08-28T04:11:51.019Z,0.00
2018-08-28T04:12:50.936Z,0.00
2018-08-28T04:13:50.857Z,0.00
2018-08-28T04:14:50.780Z,0.00
2018-08-28T04:15:50.701Z,0.00
2018-08-28T04:16:50.624Z,0.00
2018-08-28T04:17:50.549Z,0.00
2018-08-28T04:18:50.470Z,0.00
2018-08-28T04:19:50.392Z,0.00
2018-08-28T04:20:50.315Z,0.00
2018-08-28T04:21:50.237Z,0.00
2018-08-28T04:22:50.160Z,0.00
2018-08-28T04:23:50.081Z,0.00
2018-08-28T04:24:50.005Z,0.00
2018-08-28T04:25:49.926Z,0.00
2018-08-28T04:26:49.850Z,0.00
2018-08-28T04:27:49.770Z,0.00
2018-08-28T04:28:49.695Z,0.00
2018-08-28T04:29:49.616Z,0.00
2018-08-28T04:30:49.568Z,5.63
2018-08-28T04:31:49.460Z,5.63
2018-08-28T04:32:49.383Z,5.63
2018-08-28T04:33:49.312Z,5.63
2018-08-28T04:34:49.228Z,5.63
2018-08-28T04:35:49.149Z,5.63
2018-08-28T04:36:49.071Z,5.63
2018-08-28T04:37:48.994Z,5.63
2018-08-28T04:38:48.917Z,11.25
2018-08-28T04:39:48.838Z,11.25
2018-08-28T04:40:48.760Z,11.25
2018-08-28T04:41:48.695Z,11.25
2018-08-28T04:42:48.606Z,11.25
2018-08-28T04:43:48.527Z,11.25
2018-08-28T04:44:48.450Z,16.88
2018-08-28T04:45:48.373Z,16.88
2018-08-28T04:46:48.295Z,16.88
2018-08-28T04:47:48.216Z,16.88
2018-08-28T04:48:48.165Z,16.88
2018-08-28T04:49:48.061Z,22.50
2018-08-28T04:50:47.983Z,22.50
2018-08-28T04:51:47.906Z,22.50
2018-08-28T04:52:47.827Z,22.50
2018-08-28T04:53:47.750Z,28.13
2018-08-28T04:54:47.676Z,28.13
2018-08-28T04:55:47.594Z,28.13
2018-08-28T04:56:47.516Z,28.13
2018-08-28T04:57:47.439Z,28.13
2018-08-28T04:58:47.360Z,33.75
2018-08-28T04:59:47.282Z,33.75
2018-08-28T05:00:47.274Z,33.75
2018-08-28T05:01:47.128Z,33.75
2018-08-28T05:02:47.050Z,33.75
2018-08-28T05:03:46.971Z,39.38
2018-08-28T05:04:46.895Z,39.38
2018-08-28T05:05:46.817Z,39.38
2018-08-28T05:06:46.739Z,39.38
2018-08-28T05:07:46.760Z,45.00
2018-08-28T05:08:46.582Z,45.00
2018-08-28T05:09:46.505Z,45.00
2018-08-28T05:10:46.428Z,45.00
2018-08-28T05:11:46.407Z,45.00
2018-08-28T05:12:46.276Z,50.63
2018-08-28T05:13:46.196Z,50.63
2018-08-28T05:14:46.129Z,50.63
2018-08-28T05:15:46.084Z,50.63
2018-08-28T05:16:45.959Z,56.25
2018-08-28T05:17:45.882Z,56.25
2018-08-28T05:18:45.804Z,56.25
2018-08-28T05:19:45.726Z,56.25
2018-08-28T05:20:45.648Z,56.25
2018-08-28T05:21:45.570Z,61.88
2018-08-28T05:22:45.493Z,61.88
2018-08-28T05:23:45.415Z,61.88
2018-08-28T05:24:45.336Z,61.88
2018-08-28T05:25:45.258Z,67.50
2018-08-28T05:26:45.181Z,67.50
2018-08-28T05:27:45.104Z,67.50
2018-08-28T05:28:45.025Z,67.50
2018-08-28T05:29:45.249Z,73.13
2018-08-28T05:30:44.873Z,73.13
2018-08-28T05:31:44.795Z,73.13
2018-08-28T05:32:44.713Z,78.75
2018-08-28T05:33:44.636Z,78.75
2018-08-28T05:34:44.559Z,78.75
2018-08-28T05:35:44.479Z,78.75
2018-08-28T05:36:44.403Z,84.38
2018-08-28T05:37:44.326Z,84.38
2018-08-28T05:38:44.247Z,84.38
2018-08-28T05:39:44.170Z,84.38
2018-08-28T05:40:44.093Z,84.38
2018-08-28T05:41:44.015Z,90.00
2018-08-28T05:42:43.937Z,90.00
2018-08-28T05:43:43.858Z,90.00
2018-08-28T05:44:43.781Z,90.00
2018-08-28T05:45:43.704Z,90.00
2018-08-28T05:46:43.627Z,95.63
2018-08-28T05:47:43.548Z,95.63
2018-08-28T05:48:43.472Z,95.63
2018-08-28T05:49:43.405Z,95.63
2018-08-28T05:50:43.318Z,95.63
2018-08-28T05:51:43.239Z,95.63
2018-08-28T05:52:43.163Z,95.63
2018-08-28T05:53:43.086Z,95.63
2018-08-28T05:54:43.009Z,95.63
2018-08-28T05:55:42.957Z,95.63
2018-08-28T05:56:42.855Z,106.88
2018-08-28T05:57:42.777Z,101.25
2018-08-28T05:58:42.706Z,101.25
2018-08-28T05:59:42.625Z,101.25
2018-08-28T06:00:42.545Z,101.25
2018-08-28T06:01:42.473Z,106.88
2018-08-28T06:02:42.394Z,106.88
2018-08-28T06:03:42.314Z,106.88
2018-08-28T06:04:42.240Z,106.88
2018-08-28T06:05:42.162Z,106.88
2018-08-28T06:06:42.085Z,112.50
2018-08-28T06:07:42.007Z,112.50
2018-08-28T06:08:41.980Z,112.50
2018-08-28T06:09:41.854Z,112.50
2018-08-28T06:10:41.777Z,112.50
2018-08-28T06:11:41.700Z,112.50
2018-08-28T06:12:41.623Z,118.13
2018-08-28T06:13:41.546Z,118.13
2018-08-28T06:14:41.481Z,118.13
2018-08-28T06:15:41.393Z,118.13
2018-08-28T06:16:41.316Z,118.13
2018-08-28T06:17:41.240Z,118.13
2018-08-28T06:18:41.164Z,123.75
2018-08-28T06:19:41.088Z,123.75
2018-08-28T06:20:41.010Z,123.75
2018-08-28T06:21:40.935Z,123.75
2018-08-28T06:22:40.858Z,123.75
2018-08-28T06:23:40.781Z,129.38
2018-08-28T06:24:40.705Z,129.38
2018-08-28T06:25:40.630Z,129.38
2018-08-28T06:26:40.553Z,129.38
2018-08-28T06:27:40.477Z,129.38
2018-08-28T06:28:40.401Z,129.38
2018-08-28T06:29:40.325Z,129.38
2018-08-28T06:30:40.248Z,129.38
2018-08-28T06:31:40.181Z,135.00
2018-08-28T06:32:40.096Z,135.00
2018-08-28T06:33:40.020Z,135.00
2018-08-28T06:34:39.944Z,135.00
2018-08-28T06:35:39.868Z,135.00
2018-08-28T06:36:39.792Z,135.00
2018-08-28T06:37:39.717Z,135.00
2018-08-28T06:38:39.642Z,135.00
2018-08-28T06:39:39.567Z,135.00
2018-08-28T06:40:39.490Z,135.00
2018-08-28T06:41:39.414Z,146.25
2018-08-28T06:42:39.339Z,140.63
2018-08-28T06:43:39.271Z,140.63
2018-08-28T06:44:39.186Z,140.63
2018-08-28T06:45:39.112Z,140.63
2018-08-28T06:46:39.036Z,140.63
2018-08-28T06:47:38.961Z,140.63
2018-08-28T06:48:38.886Z,146.25
2018-08-28T06:49:38.847Z,140.63
2018-08-28T06:50:38.734Z,146.25
2018-08-28T06:51:38.660Z,146.25
2018-08-28T06:52:38.587Z,146.25
2018-08-28T06:53:38.507Z,146.25
2018-08-28T06:54:38.438Z,146.25
2018-08-28T06:55:38.356Z,151.88
2018-08-28T06:56:38.306Z,151.88
2018-08-28T06:57:38.205Z,151.88
2018-08-28T06:58:38.131Z,151.88
2018-08-28T06:59:38.055Z,151.88
2018-08-28T07:00:37.980Z,151.88
2018-08-28T07:01:37.905Z,151.88
2018-08-28T07:02:37.831Z,151.88
2018-08-28T07:03:37.758Z,157.50
2018-08-28T07:04:37.679Z,157.50
2018-08-28T07:05:37.606Z,157.50
2018-08-28T07:06:37.530Z,157.50
2018-08-28T07:07:37.456Z,157.50
2018-08-28T07:08:37.379Z,157.50
2018-08-28T07:09:37.311Z,163.13
2018-08-28T07:10:37.230Z,163.13
2018-08-28T07:11:37.156Z,163.13
2018-08-28T07:12:37.081Z,163.13
2018-08-28T07:13:37.004Z,163.13
2018-08-28T07:14:36.932Z,163.13
2018-08-28T07:15:36.856Z,163.13
2018-08-28T07:16:36.782Z,168.75
2018-08-28T07:17:36.708Z,168.75
2018-08-28T07:18:36.681Z,168.75
2018-08-28T07:19:36.559Z,168.75
2018-08-28T07:20:36.485Z,168.75
2018-08-28T07:21:36.410Z,168.75
2018-08-28T07:22:36.335Z,168.75
2018-08-28T07:23:36.260Z,168.75
2018-08-28T07:24:36.187Z,174.38
2018-08-28T07:25:36.158Z,174.38
2018-08-28T07:26:36.038Z,174.38
2018-08-28T07:27:35.964Z,174.38
2018-08-28T07:28:35.888Z,174.38
2018-08-28T07:29:35.816Z,174.38
2018-08-28T07:30:35.743Z,174.38
2018-08-28T07:31:35.691Z,174.38
2018-08-28T07:32:35.593Z,174.38
2018-08-28T07:33:35.519Z,180.00
2018-08-28T07:34:35.446Z,180.00
2018-08-28T07:35:35.371Z,180.00
2018-08-28T07:36:35.298Z,180.00
2018-08-28T07:37:35.480Z,180.00
2018-08-28T07:38:35.151Z,180.00
2018-08-28T07:39:35.076Z,180.00
2018-08-28T07:40:35.003Z,180.00
2018-08-28T07:41:34.928Z,180.00
2018-08-28T07:42:34.854Z,180.00
2018-08-28T07:43:34.780Z,180.00
2018-08-28T07:44:34.707Z,180.00
2018-08-28T07:45:34.633Z,180.00
2018-08-28T07:46:34.560Z,180.00
2018-08-28T07:47:34.489Z,180.00
2018-08-28T07:48:34.413Z,180.00
2018-08-28T07:49:34.339Z,185.63
2018-08-28T07:50:34.267Z,185.63
2018-08-28T07:51:34.197Z,185.63
2018-08-28T07:52:34.120Z,185.63
2018-08-28T07:53:34.047Z,191.25
2018-08-28T07:54:33.973Z,191.25
2018-08-28T07:55:33.900Z,191.25
2018-08-28T07:56:33.827Z,191.25
2018-08-28T07:57:33.753Z,191.25
2018-08-28T07:58:33.679Z,191.25
2018-08-28T07:59:33.606Z,196.88
2018-08-28T08:00:33.533Z,196.88
2018-08-28T08:01:33.496Z,196.88
2018-08-28T08:02:33.387Z,196.88
2018-08-28T08:03:33.312Z,196.88
2018-08-28T08:04:33.239Z,196.88
2018-08-28T08:05:33.166Z,202.50
2018-08-28T08:06:33.092Z,202.50
2018-08-28T08:07:33.021Z,202.50
2018-08-28T08:08:32.946Z,202.50
2018-08-28T08:09:32.874Z,202.50
2018-08-28T08:10:32.807Z,202.50
2018-08-28T08:11:32.727Z,202.50
2018-08-28T08:12:32.653Z,202.50
2018-08-28T08:13:32.582Z,202.50
2018-08-28T08:14:32.509Z,208.13
2018-08-28T08:15:32.460Z,208.13
2018-08-28T08:16:32.362Z,208.13
2018-08-28T08:17:32.291Z,208.13
2018-08-28T08:18:32.217Z,213.75
2018-08-28T08:19:32.143Z,208.13
2018-08-28T08:20:32.072Z,213.75
2018-08-28T08:21:31.997Z,213.75
2018-08-28T08:22:31.925Z,213.75
2018-08-28T08:23:31.852Z,213.75
2018-08-28T08:24:31.779Z,213.75
2018-08-28T08:25:31.706Z,219.38
2018-08-28T08:26:31.632Z,219.38
2018-08-28T08:27:31.559Z,219.38
2018-08-28T08:28:31.487Z,219.38
2018-08-28T08:29:31.414Z,219.38
2018-08-28T08:30:31.341Z,219.38
2018-08-28T08:31:31.268Z,219.38
2018-08-28T08:32:31.195Z,219.38
2018-08-28T08:33:31.123Z,225.00
2018-08-28T08:34:31.050Z,225.00
2018-08-28T08:35:30.983Z,225.00
2018-08-28T08:36:30.910Z,225.00
2018-08-28T08:37:30.832Z,225.00
2018-08-28T08:38:30.761Z,230.63
2018-08-28T08:39:30.686Z,230.63
2018-08-28T08:40:30.614Z,230.63
2018-08-28T08:41:30.541Z,230.63
2018-08-28T08:42:30.470Z,230.63
2018-08-28T08:43:30.399Z,236.25
2018-08-28T08:44:30.324Z,236.25
2018-08-28T08:45:30.252Z,236.25
2018-08-28T08:46:30.178Z,236.25
2018-08-28T08:47:30.107Z,236.25
2018-08-28T08:48:30.033Z,236.25
2018-08-28T08:49:29.961Z,241.88
2018-08-28T08:50:29.888Z,241.88
2018-08-28T08:51:29.817Z,247.50
2018-08-28T08:52:29.746Z,241.88
2018-08-28T08:53:29.672Z,247.50
2018-08-28T08:54:29.599Z,247.50
2018-08-28T08:55:29.526Z,247.50
2018-08-28T08:56:29.458Z,253.13
2018-08-28T08:57:29.483Z,247.50
2018-08-28T08:58:29.310Z,253.13
2018-08-28T08:59:29.244Z,253.13
2018-08-28T09:00:29.166Z,253.13
2018-08-28T09:01:29.109Z,236.25
2018-08-28T09:02:29.022Z,236.25
2018-08-28T09:03:28.948Z,236.25
2018-08-28T09:04:28.876Z,241.88
2018-08-28T09:05:28.816Z,241.88
2018-08-28T09:06:28.734Z,247.50
2018-08-28T09:07:28.660Z,253.13
2018-08-28T09:08:28.588Z,258.75
2018-08-28T09:09:28.524Z,275.63
2018-08-28T09:10:28.443Z,281.25
2018-08-28T09:11:28.369Z,286.88
2018-08-28T09:12:28.297Z,281.25
2018-08-28T09:13:28.234Z,270.00
2018-08-28T09:14:28.155Z,281.25
2018-08-28T09:15:28.082Z,275.63
2018-08-28T09:16:28.009Z,275.63
2018-08-28T09:17:27.937Z,281.25
2018-08-28T09:18:27.865Z,281.25
2018-08-28T09:19:27.902Z,292.50
2018-08-28T09:20:27.720Z,298.13
2018-08-28T09:21:27.647Z,298.13
2018-08-28T09:22:27.576Z,303.75
2018-08-28T09:23:27.502Z,298.13
2018-08-28T09:24:27.431Z,303.75
2018-08-28T09:25:27.359Z,298.13
2018-08-28T09:26:27.287Z,298.13
2018-08-28T09:27:27.212Z,298.13
2018-08-28T09:28:27.142Z,303.75
2018-08-28T09:29:27.071Z,309.38
2018-08-28T09:30:26.998Z,309.38
2018-08-28T09:31:26.985Z,303.75
2018-08-28T09:32:26.882Z,303.75
2018-08-28T09:33:26.782Z,309.38
2018-08-28T09:34:26.710Z,298.13
2018-08-28T09:35:26.636Z,303.75
2018-08-28T09:36:26.565Z,315.00
2018-08-28T09:37:26.492Z,326.25
2018-08-28T09:38:26.500Z,331.88
2018-08-28T09:39:26.350Z,337.50
2018-08-28T09:40:26.277Z,337.50
2018-08-28T09:41:26.205Z,331.88
2018-08-28T09:42:26.132Z,326.25
2018-08-28T09:43:26.061Z,320.63
2018-08-28T09:44:25.989Z,326.25
2018-08-28T09:45:25.917Z,326.25
2018-08-28T09:46:25.846Z,320.63
2018-08-28T09:47:25.771Z,326.25
2018-08-28T09:48:25.779Z,326.25
2018-08-28T09:49:25.635Z,320.63
2018-08-28T09:50:25.617Z,326.25
2018-08-28T09:51:25.485Z,326.25
2018-08-28T09:52:25.415Z,326.25
2018-08-28T09:53:25.341Z,326.25
2018-08-28T09:54:25.269Z,326.25
2018-08-28T09:55:25.198Z,326.25
2018-08-28T09:56:25.166Z,326.25
2018-08-28T09:57:25.055Z,326.25
2018-08-28T09:58:24.986Z,337.50
2018-08-28T09:59:24.909Z,337.50
2018-08-28T10:00:24.838Z,337.50
2018-08-28T10:01:24.768Z,343.13
2018-08-28T10:02:24.695Z,343.13
2018-08-28T10:03:24.623Z,343.13
2018-08-28T10:04:24.560Z,343.13
2018-08-28T10:05:24.479Z,348.75
2018-08-28T10:06:24.408Z,348.75
2018-08-28T10:07:24.335Z,354.38
2018-08-28T10:08:24.263Z,354.38
2018-08-28T10:09:24.192Z,354.38
2018-08-28T10:10:24.120Z,360.00
2018-08-28T10:11:24.047Z,360.00
2018-08-28T10:12:23.979Z,360.00
2018-08-28T10:13:23.904Z,365.63
2018-08-28T10:14:23.834Z,365.63
2018-08-28T10:15:23.760Z,365.63
2018-08-28T10:16:23.689Z,365.63
2018-08-28T10:17:23.693Z,371.25
2018-08-28T10:18:23.545Z,371.25
2018-08-28T10:19:23.474Z,371.25
2018-08-28T10:20:23.402Z,376.88
2018-08-28T10:21:23.330Z,376.88
2018-08-28T10:22:23.259Z,382.50
2018-08-28T10:23:23.186Z,382.50
2018-08-28T10:24:23.115Z,382.50
2018-08-28T10:25:23.043Z,382.50
2018-08-28T10:26:22.975Z,388.13
2018-08-28T10:27:22.902Z,388.13
2018-08-28T10:28:22.830Z,393.75
2018-08-28T10:29:22.758Z,393.75
2018-08-28T10:30:22.817Z,399.38
2018-08-28T10:31:22.615Z,399.38
2018-08-28T10:32:22.544Z,399.38
2018-08-28T10:33:22.473Z,399.38
2018-08-28T10:34:22.401Z,399.38
2018-08-28T10:35:22.329Z,405.00
2018-08-28T10:36:22.258Z,405.00
2018-08-28T10:37:22.188Z,399.38
2018-08-28T10:38:22.120Z,399.38
2018-08-28T10:39:22.043Z,405.00
2018-08-28T10:40:21.972Z,410.63
2018-08-28T10:41:21.904Z,421.88
2018-08-28T10:42:21.829Z,416.25
2018-08-28T10:43:21.758Z,416.25
2018-08-28T10:44:21.687Z,427.50
2018-08-28T10:45:21.616Z,444.38
2018-08-28T10:46:21.610Z,472.50
2018-08-28T10:47:21.473Z,545.63
2018-08-28T10:48:21.402Z,708.75
2018-08-28T10:49:21.330Z,776.25
2018-08-28T10:50:21.263Z,585.00
2018-08-28T10:51:21.189Z,523.13
2018-08-28T10:52:21.116Z,579.38
2018-08-28T10:53:21.046Z,978.75
2018-08-28T10:54:20.974Z,888.75
2018-08-28T10:55:20.902Z,1535.63
2018-08-28T10:56:20.832Z,2002.50
2018-08-28T10:57:20.762Z,1310.63
2018-08-28T10:58:20.691Z,1366.88
2018-08-28T10:59:20.619Z,1085.63
2018-08-28T11:00:20.549Z,821.25
2018-08-28T11:01:20.479Z,725.63
2018-08-28T11:02:20.408Z,607.50
2018-08-28T11:03:20.338Z,613.13
2018-08-28T11:04:20.331Z,1344.38
2018-08-28T11:05:20.198Z,1271.25
2018-08-28T11:06:20.129Z,1018.13
2018-08-28T11:07:20.061Z,933.75
2018-08-28T11:08:19.987Z,1496.25
2018-08-28T11:09:19.918Z,1316.25
2018-08-28T11:10:19.848Z,905.63
2018-08-28T11:11:19.778Z,1535.63
2018-08-28T11:12:19.709Z,945.00
2018-08-28T11:13:19.640Z,1687.50
2018-08-28T11:14:19.569Z,1029.38
2018-08-28T11:15:19.499Z,646.88
2018-08-28T11:16:19.432Z,675.00
2018-08-28T11:17:19.361Z,680.63
2018-08-28T11:18:19.293Z,1220.63
2018-08-28T11:19:19.223Z,585.00
2018-08-28T11:20:19.154Z,697.50
2018-08-28T11:21:19.085Z,585.00
2018-08-28T11:22:19.026Z,579.38
2018-08-28T11:23:18.945Z,562.50
2018-08-28T11:24:18.876Z,568.13
2018-08-28T11:25:18.807Z,1091.25
2018-08-28T11:26:18.740Z,1018.13
2018-08-28T11:27:18.671Z,1237.50
2018-08-28T11:28:18.606Z,900.00
2018-08-28T11:29:18.530Z,1108.13
2018-08-28T11:30:18.461Z,2025.00
2018-08-28T11:31:18.423Z,1743.75
2018-08-28T11:32:18.323Z,1479.38
2018-08-28T11:33:18.254Z,1479.38
2018-08-28T11:34:18.190Z,1417.50
2018-08-28T11:35:18.115Z,1597.50
2018-08-28T11:36:18.046Z,2520.00
2018-08-28T11:37:17.980Z,2688.75
2018-08-28T11:38:17.955Z,3577.50
2018-08-28T11:39:17.843Z,2205.00
2018-08-28T11:40:17.774Z,2705.63
2018-08-28T11:41:17.706Z,3465.00
2018-08-28T11:42:17.639Z,3695.63
2018-08-28T11:43:17.572Z,3706.88
2018-08-28T11:44:17.510Z,3639.38
2018-08-28T11:45:17.439Z,3549.38
2018-08-28T11:46:17.373Z,3127.50
2018-08-28T11:47:17.396Z,3543.75
2018-08-28T11:48:17.242Z,3870.00
2018-08-28T11:49:17.179Z,3864.38
2018-08-28T11:50:17.111Z,3898.13
2018-08-28T11:51:17.052Z,3858.75
2018-08-28T11:52:17.042Z,3853.13
2018-08-28T11:53:17.021Z,3605.63
2018-08-28T11:54:16.856Z,3622.50
2018-08-28T11:55:16.792Z,3999.38
2018-08-28T11:56:16.729Z,4280.63
2018-08-28T11:57:16.665Z,4443.75
2018-08-28T11:58:16.605Z,4438.13
2018-08-28T11:59:16.539Z,4089.38
2018-08-28T12:00:16.482Z,3886.88
2018-08-28T12:01:16.416Z,3858.75
2018-08-28T12:02:16.353Z,3847.50
2018-08-28T12:03:16.291Z,4140.00
2018-08-28T12:04:16.234Z,4325.63
2018-08-28T12:05:16.238Z,4258.13
2018-08-28T12:06:16.108Z,4185.00
2018-08-28T12:07:16.088Z,4140.00
2018-08-28T12:08:15.987Z,4246.88
2018-08-28T12:09:15.927Z,4016.25
2018-08-28T12:10:15.867Z,4241.25
2018-08-28T12:11:15.806Z,4213.13
2018-08-28T12:12:15.746Z,4325.63
2018-08-28T12:13:15.753Z,4365.00
2018-08-28T12:14:15.627Z,4286.25
2018-08-28T12:15:15.565Z,4252.50
2018-08-28T12:16:15.505Z,4218.75
2018-08-28T12:17:15.452Z,4117.50
2018-08-28T12:18:15.388Z,4218.75
2018-08-28T12:19:15.327Z,4252.50
2018-08-28T12:20:15.314Z,4179.38
2018-08-28T12:21:15.209Z,4083.75
2018-08-28T12:22:15.147Z,3813.75
2018-08-28T12:26:40.758Z,4016.25
2018-08-28T12:27:40.660Z,4095.00
2018-08-28T12:28:40.605Z,4044.38
2018-08-28T12:29:40.626Z,3960.00
2018-08-28T12:30:40.487Z,3976.88
2018-08-28T12:31:40.429Z,3954.38
2018-08-28T12:32:40.372Z,4016.25
2018-08-28T12:33:40.314Z,4173.75
2018-08-28T12:34:40.256Z,4044.38
2018-08-28T12:35:40.203Z,4151.25
2018-08-28T12:36:40.203Z,4185.00
2018-08-28T12:37:40.086Z,4179.38
2018-08-28T12:38:40.032Z,4106.25
2018-08-28T12:39:39.973Z,4106.25
2018-08-28T12:40:39.917Z,4207.50
2018-08-28T12:41:39.860Z,4185.00
2018-08-28T12:42:39.818Z,4100.63
2018-08-28T12:43:39.749Z,4044.38
2018-08-28T12:44:39.692Z,3836.25
2018-08-28T12:45:39.634Z,3667.50
2018-08-28T12:46:39.580Z,3836.25
2018-08-28T12:47:39.527Z,3903.75